Time;durP1;ratioP1;P1;durP2;ratioP2;P2;SDS_P1;SDS_P2;PMS_P1;PMS_P2;Temp;Humidity;BMP_temperature;BMP_pressure;BME280_temperature;BME280_humidity;BME280_pressure;Samples;Min_cycle;Max_cycle;Signal;HPM_P1;HPM_P2
2023/06/18 00:00:58;;;;;;;39.20;31.10;;;15.80;99.90;;;;;;5172843;27;20026;-86
2023/06/18 00:03:25;;;;;;;42.05;33.58;;;15.80;99.90;;;;;;5135708;27;20037;-85
2023/06/18 00:05:53;;;;;;;47.28;36.78;;;15.80;99.90;;;;;;5136617;27;20038;-86
2023/06/18 00:08:20;;;;;;;44.20;36.97;;;15.80;99.90;;;;;;5135315;27;20054;-86
2023/06/18 00:10:46;;;;;;;48.88;36.30;;;15.80;99.90;;;;;;5136689;27;20145;-87
2023/06/18 00:13:12;;;;;;;48.53;35.97;;;15.70;99.90;;;;;;5154096;27;20050;-86
2023/06/18 00:15:38;;;;;;;42.40;33.60;;;16.10;99.90;;;;;;5137236;27;20099;-87
2023/06/18 00:18:03;;;;;;;44.60;34.95;;;15.70;99.90;;;;;;5151777;27;20042;-86
2023/06/18 00:20:29;;;;;;;43.42;35.95;;;15.60;99.90;;;;;;5153716;27;20045;-86
2023/06/18 00:22:55;;;;;;;40.35;32.33;;;15.60;99.90;;;;;;5135525;27;20575;-86
2023/06/18 00:25:21;;;;;;;44.65;35.08;;;15.60;99.90;;;;;;5152559;27;20034;-86
2023/06/18 00:27:47;;;;;;;44.30;34.75;;;15.60;99.90;;;;;;5136435;27;20448;-86
2023/06/18 00:30:14;;;;;;;43.53;35.45;;;15.80;99.90;;;;;;5135429;27;20038;-86
2023/06/18 00:32:44;;;;;;;47.13;38.08;;;15.50;99.90;;;;;;5139305;27;20042;-86
2023/06/18 00:35:14;;;;;;;49.03;37.70;;;15.40;99.90;;;;;;5155918;27;20042;-86
2023/06/18 00:37:44;;;;;;;46.67;37.63;;;15.40;99.90;;;;;;5136172;27;20425;-86
2023/06/18 00:40:14;;;;;;;39.67;35.38;;;15.60;99.90;;;;;;5138671;27;20042;-85
2023/06/18 00:42:41;;;;;;;50.92;39.05;;;15.30;99.90;;;;;;5157277;27;20034;-86
2023/06/18 00:45:09;;;;;;;47.83;40.00;;;15.30;99.90;;;;;;5139836;27;20034;-84
2023/06/18 00:47:42;;;;;;;48.25;36.35;;;15.30;99.90;;;;;;5156686;27;20042;-85
2023/06/18 00:50:08;;;;;;;46.38;37.83;;;15.20;99.90;;;;;;5139984;27;20486;-85
2023/06/18 00:52:36;;;;;;;48.20;36.78;;;15.20;99.90;;;;;;5157430;27;20030;-86
2023/06/18 00:55:03;;;;;;;49.47;38.20;;;15.20;99.90;;;;;;5139634;27;20455;-85
2023/06/18 00:57:31;;;;;;;51.47;37.83;;;15.20;99.90;;;;;;5139494;27;20030;-85
2023/06/18 00:59:57;;;;;;;49.97;38.70;;;15.10;99.90;;;;;;5156214;27;20034;-85
2023/06/18 01:02:25;;;;;;;47.92;36.13;;;15.10;99.90;;;;;;5175055;27;20476;-86
2023/06/18 01:04:55;;;;;;;51.03;39.50;;;15.10;99.90;;;;;;5139662;27;20261;-86
2023/06/18 01:07:22;;;;;;;51.13;38.95;;;15.10;99.90;;;;;;5138651;27;20050;-85
2023/06/18 01:09:53;;;;;;;50.22;37.95;;;15.00;99.90;;;;;;5156215;27;20523;-84
2023/06/18 01:12:27;;;;;;;53.35;39.65;;;15.10;99.90;;;;;;5156501;27;20075;-85
2023/06/18 01:14:55;;;;;;;50.42;38.70;;;15.00;99.90;;;;;;5139777;27;20433;-86
2023/06/18 01:17:22;;;;;;;53.25;40.53;;;15.00;99.90;;;;;;5138343;27;20502;-85
2023/06/18 01:19:58;;;;;;;54.83;39.47;;;15.00;99.90;;;;;;5138737;27;20042;-86
2023/06/18 01:22:45;;;;;;;56.50;39.50;;;15.00;99.90;;;;;;5156580;27;20484;-86
2023/06/18 01:25:10;;;;;;;55.72;40.00;;;15.00;99.90;;;;;;5162856;27;20388;-86
2023/06/18 01:27:40;;;;;;;54.83;37.85;;;15.00;99.90;;;;;;5139227;27;20027;-85
2023/06/18 01:30:09;;;;;;;51.33;40.08;;;14.90;99.90;;;;;;5157114;27;20195;-86
2023/06/18 01:32:36;;;;;;;53.30;39.67;;;14.90;99.90;;;;;;5167060;27;20045;-86
2023/06/18 01:35:14;;;;;;;57.83;41.75;;;15.00;99.90;;;;;;5140468;27;20038;-86
2023/06/18 01:38:05;;;;;;;62.97;41.17;;;14.80;99.90;;;;;;5156767;27;20086;-86
2023/06/18 01:40:37;;;;;;;54.10;39.40;;;14.80;99.90;;;;;;5138784;27;20403;-85
2023/06/18 01:43:02;;;;;;;49.72;38.78;;;14.70;99.90;;;;;;5156155;27;20038;-87
2023/06/18 01:45:45;;;;;;;51.53;39.00;;;14.70;99.90;;;;;;5137341;27;20034;-86
2023/06/18 01:48:13;;;;;;;49.33;39.97;;;14.70;99.90;;;;;;5137975;27;20451;-85
2023/06/18 01:50:41;;;;;;;58.38;41.08;;;14.70;99.90;;;;;;5155918;27;20173;-85
2023/06/18 01:53:08;;;;;;;61.28;43.65;;;14.70;99.90;;;;;;5156145;27;20459;-85
2023/06/18 01:55:38;;;;;;;55.17;40.20;;;14.60;99.90;;;;;;5156379;27;20034;-86
2023/06/18 01:58:07;;;;;;;56.83;43.22;;;14.60;99.90;;;;;;5155564;27;20034;-86
2023/06/18 02:00:33;;;;;;;59.45;44.30;;;14.60;99.90;;;;;;5138150;27;20061;-86
2023/06/18 02:02:59;;;;;;;59.20;43.28;;;14.60;99.90;;;;;;5157034;27;20033;-86
2023/06/18 02:05:25;;;;;;;59.92;41.17;;;14.60;99.90;;;;;;5156794;27;20026;-85
2023/06/18 02:07:50;;;;;;;53.65;41.30;;;14.50;99.90;;;;;;5138336;27;20507;-85
2023/06/18 02:10:16;;;;;;;60.08;43.90;;;14.60;99.90;;;;;;5138943;27;20090;-86
2023/06/18 02:12:42;;;;;;;56.35;40.80;;;14.50;99.90;;;;;;5138935;27;20101;-85
2023/06/18 02:15:08;;;;;;;64.07;43.58;;;14.50;99.90;;;;;;5137586;27;20137;-85
2023/06/18 02:17:34;;;;;;;62.60;43.55;;;14.40;99.90;;;;;;5138716;27;20045;-86
2023/06/18 02:19:59;;;;;;;55.67;41.53;;;14.50;99.90;;;;;;5154869;27;20042;-86
2023/06/18 02:22:25;;;;;;;57.15;38.90;;;14.60;99.90;;;;;;5139068;27;20472;-86
2023/06/18 02:24:51;;;;;;;66.47;45.92;;;14.40;99.90;;;;;;5142630;27;20037;-85
2023/06/18 02:27:17;;;;;;;61.33;42.83;;;14.40;99.90;;;;;;5140223;27;20034;-85
2023/06/18 02:29:42;;;;;;;64.90;41.92;;;14.40;99.90;;;;;;5155067;27;20679;-85
2023/06/18 02:32:08;;;;;;;63.80;44.38;;;14.30;99.90;;;;;;5173529;27;20071;-85
2023/06/18 02:34:34;;;;;;;58.13;41.47;;;14.40;99.90;;;;;;5137414;27;20035;-85
2023/06/18 02:37:00;;;;;;;57.03;43.65;;;14.40;99.90;;;;;;5155042;27;20503;-85
2023/06/18 02:39:25;;;;;;;59.90;43.08;;;14.30;99.90;;;;;;5154650;27;20081;-85
2023/06/18 02:41:51;;;;;;;63.55;43.92;;;14.20;99.90;;;;;;5137556;27;20108;-86
2023/06/18 02:44:17;;;;;;;59.67;44.20;;;14.30;99.90;;;;;;5137550;27;20041;-87
2023/06/18 02:46:42;;;;;;;62.03;44.30;;;14.50;99.90;;;;;;5155041;27;20396;-86
2023/06/18 02:49:08;;;;;;;56.72;41.70;;;14.20;99.90;;;;;;5154691;27;20042;-86
2023/06/18 02:51:34;;;;;;;68.30;45.67;;;14.20;99.90;;;;;;5136947;27;20026;-86
2023/06/18 02:54:00;;;;;;;58.95;43.40;;;14.20;99.90;;;;;;5173327;27;20042;-85
2023/06/18 02:56:28;;;;;;;54.28;41.10;;;14.40;99.90;;;;;;5173194;27;20083;-86
2023/06/18 02:58:57;;;;;;;66.05;43.03;;;14.20;99.90;;;;;;5135889;27;20034;-86
2023/06/18 03:01:25;;;;;;;58.97;42.10;;;14.20;99.90;;;;;;5172401;27;20031;-87
2023/06/18 03:03:53;;;;;;;55.85;43.40;;;14.30;99.90;;;;;;5136847;27;20034;-86
2023/06/18 03:06:19;;;;;;;65.97;45.72;;;14.10;99.90;;;;;;5136823;27;20037;-86
2023/06/18 03:08:46;;;;;;;58.42;43.35;;;14.40;99.90;;;;;;5150766;27;20130;-86
2023/06/18 03:11:11;;;;;;;60.88;44.45;;;14.10;99.90;;;;;;5133104;27;20041;-86
2023/06/18 03:13:37;;;;;;;52.38;40.03;;;14.10;99.90;;;;;;5151244;27;20035;-85
2023/06/18 03:16:03;;;;;;;64.40;45.65;;;14.10;99.90;;;;;;5133993;27;20114;-86
2023/06/18 03:18:28;;;;;;;55.17;43.67;;;14.10;99.90;;;;;;5150066;27;20087;-85
2023/06/18 03:20:55;;;;;;;55.05;41.80;;;14.10;99.90;;;;;;5153467;27;20035;-86
2023/06/18 03:23:21;;;;;;;67.45;44.33;;;14.00;99.90;;;;;;5152472;27;20303;-85
2023/06/18 03:25:46;;;;;;;61.55;45.10;;;14.10;99.90;;;;;;5151228;27;20343;-85
2023/06/18 03:28:12;;;;;;;59.03;42.70;;;14.70;99.90;;;;;;5149572;27;20031;-86
2023/06/18 03:30:38;;;;;;;59.10;44.83;;;14.20;99.90;;;;;;5133891;27;20039;-87
2023/06/18 03:33:04;;;;;;;54.78;41.50;;;14.10;99.90;;;;;;5151225;27;20042;-86
2023/06/18 03:35:30;;;;;;;58.90;43.50;;;14.70;99.90;;;;;;5149504;27;20381;-86
2023/06/18 03:37:56;;;;;;;59.28;44.55;;;14.10;99.90;;;;;;5149918;27;20498;-86
2023/06/18 03:40:21;;;;;;;58.47;43.65;;;14.10;99.90;;;;;;5149591;27;20163;-86
2023/06/18 03:42:47;;;;;;;61.60;43.92;;;14.30;99.90;;;;;;5150339;27;20269;-86
2023/06/18 03:45:14;;;;;;;63.85;42.97;;;14.20;99.90;;;;;;5150929;27;20388;-87
2023/06/18 03:47:39;;;;;;;61.92;46.28;;;14.30;99.90;;;;;;5132345;27;20047;-86
2023/06/18 03:50:06;;;;;;;57.50;43.55;;;14.60;99.90;;;;;;5151773;27;20065;-87
2023/06/18 03:52:32;;;;;;;54.85;39.38;;;14.40;99.90;;;;;;5151168;27;20042;-86
2023/06/18 03:54:58;;;;;;;59.17;42.25;;;14.80;99.90;;;;;;5132603;27;20031;-85
2023/06/18 03:57:24;;;;;;;61.78;44.80;;;14.50;99.90;;;;;;5151169;27;20328;-86
2023/06/18 03:59:51;;;;;;;56.58;39.85;;;14.60;99.90;;;;;;5132539;27;20043;-86
2023/06/18 04:02:17;;;;;;;57.38;40.15;;;14.90;99.90;;;;;;5152280;27;20107;-87
2023/06/18 04:04:44;;;;;;;58.40;40.17;;;14.70;99.90;;;;;;5132984;27;20536;-84
2023/06/18 04:07:10;;;;;;;53.10;38.72;;;14.70;99.90;;;;;;5156755;27;20073;-86
2023/06/18 04:09:36;;;;;;;59.33;41.33;;;14.60;99.90;;;;;;5170739;27;20472;-86
2023/06/18 04:12:02;;;;;;;63.30;44.25;;;14.90;99.90;;;;;;5135052;27;20034;-86
2023/06/18 04:14:27;;;;;;;76.25;40.67;;;14.90;99.90;;;;;;5152733;27;20078;-86
2023/06/18 04:16:53;;;;;;;78.55;37.38;;;15.10;99.90;;;;;;5155736;27;20038;-86
2023/06/18 04:19:19;;;;;;;54.40;37.63;;;15.10;99.90;;;;;;5156444;27;20122;-86
2023/06/18 04:21:44;;;;;;;65.85;38.08;;;14.90;99.90;;;;;;5154445;27;20038;-86
2023/06/18 04:24:10;;;;;;;68.82;36.08;;;14.90;99.90;;;;;;5152452;27;20041;-86
2023/06/18 04:26:36;;;;;;;80.80;34.95;;;14.80;99.90;;;;;;5152577;27;20480;-85
2023/06/18 04:29:02;;;;;;;57.30;33.53;;;14.70;99.90;;;;;;5135102;27;20034;-86
2023/06/18 04:31:27;;;;;;;77.85;32.75;;;14.80;99.90;;;;;;5171309;27;20036;-86
2023/06/18 04:33:53;;;;;;;86.28;34.67;;;14.70;99.90;;;;;;5153335;27;20090;-84
2023/06/18 04:36:19;;;;;;;62.53;33.05;;;14.70;99.90;;;;;;5135164;27;20187;-84
2023/06/18 04:38:44;;;;;;;59.60;32.42;;;14.70;99.90;;;;;;5134447;27;20062;-84
2023/06/18 04:41:10;;;;;;;49.70;33.28;;;14.80;99.90;;;;;;5134772;27;20076;-85
2023/06/18 04:43:36;;;;;;;42.45;28.30;;;15.00;99.90;;;;;;5170558;27;20027;-85
2023/06/18 04:46:02;;;;;;;61.47;31.10;;;14.90;99.90;;;;;;5134827;27;20034;-85
2023/06/18 04:48:27;;;;;;;46.42;32.63;;;15.00;99.90;;;;;;5151974;27;20066;-85
2023/06/18 04:50:53;;;;;;;39.53;31.83;;;15.10;99.90;;;;;;5152000;27;20380;-85
2023/06/18 04:53:19;;;;;;;92.68;30.77;;;15.10;99.90;;;;;;5151671;27;20038;-85
2023/06/18 04:55:45;;;;;;;55.80;33.78;;;15.30;99.90;;;;;;5151576;27;20487;-85
2023/06/18 04:58:11;;;;;;;39.53;31.23;;;15.40;99.90;;;;;;5151056;27;20053;-85
2023/06/18 05:00:36;;;;;;;39.53;30.25;;;15.40;99.90;;;;;;5170427;27;20438;-85
2023/06/18 05:03:04;;;;;;;55.67;36.03;;;15.40;99.90;;;;;;5134283;27;20030;-85
2023/06/18 05:05:30;;;;;;;67.80;33.08;;;15.50;99.90;;;;;;5152178;27;20046;-85
2023/06/18 05:07:56;;;;;;;70.75;33.15;;;15.40;99.90;;;;;;5150680;27;20492;-85
2023/06/18 05:10:22;;;;;;;48.83;33.13;;;15.40;99.90;;;;;;5170269;27;20042;-85
2023/06/18 05:12:48;;;;;;;42.45;35.05;;;15.50;99.90;;;;;;5152543;27;20408;-85
2023/06/18 05:15:14;;;;;;;46.88;33.85;;;15.60;99.90;;;;;;5154500;27;20045;-85
2023/06/18 05:17:39;;;;;;;58.25;38.83;;;15.70;99.90;;;;;;5151363;27;20094;-86
2023/06/18 05:20:09;;;;;;;39.78;31.60;;;15.70;99.90;;;;;;5155778;27;20039;-85
2023/06/18 05:22:35;;;;;;;55.38;34.03;;;16.00;99.90;;;;;;5149083;27;20053;-85
2023/06/18 05:25:01;;;;;;;51.88;44.50;;;16.00;99.90;;;;;;5162234;27;20046;-86
2023/06/18 05:27:28;;;;;;;40.70;33.15;;;16.10;99.90;;;;;;5149289;27;20038;-86
2023/06/18 05:29:54;;;;;;;43.97;34.45;;;16.30;99.90;;;;;;5150088;27;20054;-84
2023/06/18 05:32:20;;;;;;;46.00;37.25;;;16.40;99.90;;;;;;5160481;27;20039;-85
2023/06/18 05:34:46;;;;;;;42.75;33.13;;;16.60;99.90;;;;;;5159110;27;20030;-85
2023/06/18 05:37:12;;;;;;;42.40;32.30;;;16.60;99.90;;;;;;5149710;27;20109;-87
2023/06/18 05:39:37;;;;;;;40.90;34.35;;;16.80;99.90;;;;;;5161409;27;20067;-87
2023/06/18 05:42:04;;;;;;;36.22;28.42;;;17.30;99.90;;;;;;5120108;27;20039;-87
2023/06/18 05:44:29;;;;;;;36.13;29.45;;;17.50;99.90;;;;;;5137455;27;20038;-85
2023/06/18 05:46:55;;;;;;;38.17;29.95;;;17.90;99.90;;;;;;5161603;27;20034;-86
2023/06/18 05:49:21;;;;;;;35.17;29.25;;;18.30;99.90;;;;;;5144533;27;20042;-86
2023/06/18 05:51:47;;;;;;;33.45;28.33;;;18.90;99.90;;;;;;5156525;27;20045;-86
2023/06/18 05:54:13;;;;;;;30.80;27.48;;;19.40;99.90;;;;;;5137812;27;20034;-86
2023/06/18 05:56:39;;;;;;;32.75;26.90;;;20.10;99.90;;;;;;5176694;27;20268;-86
2023/06/18 05:59:05;;;;;;;28.05;25.02;;;20.70;99.90;;;;;;5138917;27;20535;-87
2023/06/18 06:01:33;;;;;;;29.70;26.40;;;21.40;99.90;;;;;;5134698;27;20046;-85
2023/06/18 06:03:59;;;;;;;27.35;24.38;;;21.90;99.90;;;;;;5134904;27;20091;-86
2023/06/18 06:06:25;;;;;;;26.55;23.42;;;22.40;99.90;;;;;;5141277;27;20038;-85
2023/06/18 06:08:52;;;;;;;26.25;23.45;;;22.70;99.90;;;;;;5161840;27;20046;-87
2023/06/18 06:11:18;;;;;;;25.25;22.52;;;23.20;99.90;;;;;;5136850;27;20042;-86
2023/06/18 06:13:43;;;;;;;26.98;24.20;;;23.50;99.90;;;;;;5173917;27;20102;-86
2023/06/18 06:16:09;;;;;;;29.33;26.42;;;23.70;99.90;;;;;;5157677;27;20042;-86
2023/06/18 06:18:35;;;;;;;56.83;52.22;;;24.40;99.90;;;;;;5155566;27;20030;-86
2023/06/18 06:21:00;;;;;;;84.15;78.65;;;24.00;99.90;;;;;;5154858;27;20033;-84
2023/06/18 06:23:26;;;;;;;85.47;79.78;;;24.30;99.90;;;;;;5155689;27;20476;-84
2023/06/18 06:25:52;;;;;;;158.70;148.75;;;24.50;99.90;;;;;;5151119;27;20406;-84
2023/06/18 06:28:17;;;;;;;206.10;192.88;;;24.70;99.90;;;;;;5174309;27;20652;-85
2023/06/18 06:30:43;;;;;;;567.72;524.55;;;25.50;99.90;;;;;;5155003;27;20034;-85
2023/06/18 06:33:09;;;;;;;671.22;617.50;;;25.30;99.90;;;;;;5155205;27;20050;-86
2023/06/18 06:35:36;;;;;;;783.20;717.17;;;25.30;99.90;;;;;;5154474;27;20040;-83
2023/06/18 06:38:02;;;;;;;899.38;818.67;;;25.20;99.90;;;;;;5172321;27;20030;-83
2023/06/18 06:40:27;;;;;;;899.38;817.47;;;25.10;99.90;;;;;;5154415;27;20049;-83
2023/06/18 06:42:53;;;;;;;939.63;852.70;;;25.30;99.90;;;;;;5173978;27;20079;-83
2023/06/18 06:45:18;;;;;;;913.08;829.20;;;25.40;99.90;;;;;;5173616;27;20106;-83
2023/06/18 06:47:46;;;;;;;979.80;885.08;;;25.40;99.90;;;;;;5155094;27;20030;-84
2023/06/18 06:50:12;;;;;;;1005.30;903.92;;;25.60;99.90;;;;;;5136801;27;20125;-83
2023/06/18 06:52:37;;;;;;;1035.20;928.75;;;25.80;99.90;;;;;;5154506;27;20057;-83
2023/06/18 06:55:03;;;;;;;1072.55;954.00;;;25.90;99.90;;;;;;5154529;27;20038;-83
2023/06/18 06:57:29;;;;;;;1075.18;957.47;;;25.70;99.90;;;;;;5172390;27;20030;-83
2023/06/18 06:59:55;;;;;;;1226.15;999.45;;;26.00;99.90;;;;;;5153288;27;20113;-83
2023/06/18 07:02:20;;;;;;;1286.63;999.90;;;26.00;99.90;;;;;;5172666;27;20562;-83
2023/06/18 07:04:47;;;;;;;1335.47;999.90;;;26.40;99.90;;;;;;5155386;27;20030;-83
2023/06/18 07:07:16;;;;;;;1398.05;999.90;;;26.30;99.90;;;;;;5150687;27;20107;-83
2023/06/18 07:09:42;;;;;;;1574.93;999.90;;;26.60;99.70;;;;;;5144186;27;20159;-83
2023/06/18 07:12:08;;;;;;;1842.55;999.90;;;26.90;99.60;;;;;;5151174;27;20158;-83
2023/06/18 07:14:35;;;;;;;1999.90;999.90;;;27.30;99.40;;;;;;5144123;27;20381;-83
2023/06/18 07:17:00;;;;;;;1999.90;999.90;;;27.70;98.70;;;;;;5146031;27;20465;-83
2023/06/18 07:19:26;;;;;;;1999.90;999.90;;;27.80;98.10;;;;;;5137874;27;20071;-83
2023/06/18 07:21:53;;;;;;;1999.90;999.90;;;28.00;98.00;;;;;;5142407;27;20527;-83
2023/06/18 07:24:19;;;;;;;1999.90;999.90;;;28.30;98.00;;;;;;5142360;27;20039;-83
2023/06/18 07:26:44;;;;;;;1999.90;999.90;;;27.90;97.60;;;;;;5144864;27;20040;-84
2023/06/18 07:29:10;;;;;;;1999.90;999.90;;;27.00;98.30;;;;;;5119102;27;20043;-84
2023/06/18 07:31:36;;;;;;;1999.90;999.90;;;26.70;98.60;;;;;;5142235;27;20030;-84
2023/06/18 07:34:01;;;;;;;1999.90;999.90;;;26.70;99.30;;;;;;5149775;27;20043;-83
2023/06/18 07:36:27;;;;;;;1999.90;999.90;;;26.50;98.80;;;;;;5132865;27;20531;-83
2023/06/18 07:38:52;;;;;;;1999.90;999.90;;;26.50;99.00;;;;;;5150371;27;20033;-83
2023/06/18 07:41:18;;;;;;;1999.90;999.90;;;26.70;99.80;;;;;;5145825;27;20417;-84
2023/06/18 07:43:44;;;;;;;1999.90;999.90;;;27.20;98.60;;;;;;5150211;27;20062;-83
2023/06/18 07:46:09;;;;;;;1999.90;999.90;;;27.40;98.90;;;;;;5129751;27;20101;-82
2023/06/18 07:48:37;;;;;;;1999.90;999.90;;;27.80;98.20;;;;;;5140181;27;20075;-82
2023/06/18 07:51:03;;;;;;;1999.90;999.90;;;27.50;98.00;;;;;;5150016;27;20551;-83
2023/06/18 07:53:29;;;;;;;1999.90;999.90;;;27.70;97.60;;;;;;5150044;27;20038;-83
2023/06/18 07:55:55;;;;;;;1999.90;999.90;;;27.70;98.00;;;;;;5132697;27;20118;-82
2023/06/18 07:58:20;;;;;;;1999.90;999.90;;;27.60;97.80;;;;;;5147663;27;20042;-83
2023/06/18 08:00:46;;;;;;;1999.90;999.90;;;27.70;98.00;;;;;;5132448;27;20039;-83
2023/06/18 08:03:11;;;;;;;1999.90;999.90;;;28.10;97.80;;;;;;5136231;27;20031;-83
2023/06/18 08:05:37;;;;;;;1999.90;999.90;;;28.60;97.10;;;;;;5150721;27;20079;-83
2023/06/18 08:08:03;;;;;;;1999.90;999.90;;;28.90;97.00;;;;;;5150074;27;20428;-82
2023/06/18 08:10:28;;;;;;;1999.90;999.90;;;29.20;96.30;;;;;;5150463;27;20058;-83
2023/06/18 08:12:54;;;;;;;1999.90;999.90;;;29.00;96.30;;;;;;5132579;27;20391;-82
2023/06/18 08:15:20;;;;;;;1999.90;999.90;;;29.40;95.80;;;;;;5132170;27;20046;-83
2023/06/18 08:17:45;;;;;;;1999.90;999.90;;;29.00;96.20;;;;;;5132113;27;20025;-82
2023/06/18 08:20:11;;;;;;;1999.90;999.90;;;29.30;96.30;;;;;;5149939;27;20034;-83
2023/06/18 08:22:37;;;;;;;1999.90;999.90;;;29.60;95.90;;;;;;5132276;27;20156;-83
2023/06/18 08:25:03;;;;;;;1999.90;999.90;;;29.70;95.50;;;;;;5149881;27;20031;-83
2023/06/18 08:27:29;;;;;;;1999.90;999.90;;;30.20;95.70;;;;;;5132781;27;20069;-83
2023/06/18 08:29:54;;;;;;;1999.90;925.10;;;30.50;95.60;;;;;;5149836;27;20035;-83
2023/06/18 08:32:20;;;;;;;1999.90;848.38;;;30.50;94.90;;;;;;5131276;27;20038;-83
2023/06/18 08:34:46;;;;;;;1999.90;591.42;;;30.60;94.90;;;;;;5131984;27;20581;-83
2023/06/18 08:37:12;;;;;;;1999.90;879.50;;;30.20;95.00;;;;;;5132032;27;20035;-83
2023/06/18 08:39:38;;;;;;;1999.90;849.92;;;30.00;95.20;;;;;;5151091;27;20495;-82
2023/06/18 08:42:05;;;;;;;1999.90;887.40;;;30.10;95.40;;;;;;5132640;27;20042;-83
2023/06/18 08:44:35;;;;;;;1999.90;600.85;;;30.00;95.40;;;;;;5149668;27;20031;-83
2023/06/18 08:47:06;;;;;;;1999.90;596.28;;;30.20;94.90;;;;;;5149508;27;20069;-83
2023/06/18 08:49:32;;;;;;;1863.45;833.92;;;30.20;94.70;;;;;;5149366;27;20070;-83
2023/06/18 08:52:04;;;;;;;1903.28;869.63;;;30.30;94.80;;;;;;5132361;27;20047;-82
2023/06/18 08:54:33;;;;;;;1999.90;999.90;;;30.50;95.00;;;;;;5154485;27;20049;-84
2023/06/18 08:57:07;;;;;;;1999.90;999.90;;;30.50;94.50;;;;;;5152280;27;20116;-82
2023/06/18 08:59:34;;;;;;;1999.90;999.90;;;30.40;94.10;;;;;;5132453;27;20034;-85
2023/06/18 09:02:00;;;;;;;1999.90;999.90;;;30.30;95.20;;;;;;5153404;27;20057;-83
2023/06/18 09:04:26;;;;;;;1999.90;999.90;;;30.50;94.90;;;;;;5153294;27;20500;-83
2023/06/18 09:06:53;;;;;;;1999.90;999.90;;;30.30;94.40;;;;;;5155649;27;20045;-81
2023/06/18 09:09:20;;;;;;;1999.90;999.90;;;30.00;94.40;;;;;;5139815;27;20053;-82
2023/06/18 09:11:46;;;;;;;1999.90;999.90;;;29.90;94.40;;;;;;5130504;27;20041;-84
2023/06/18 09:14:14;;;;;;;1999.90;999.90;;;29.30;93.80;;;;;;5124137;27;20113;-83
2023/06/18 09:16:41;;;;;;;1999.90;999.90;;;29.50;95.10;;;;;;5182475;27;20030;-87
2023/06/18 09:19:07;;;;;;;1999.90;999.90;;;29.80;95.00;;;;;;5139549;27;20030;-85
2023/06/18 09:21:38;;;;;;;1999.90;999.90;;;29.60;93.40;;;;;;5140912;27;20053;-85
2023/06/18 09:24:20;;;;;;;1999.90;999.90;;;29.60;94.40;;;;;;5120827;27;20322;-86
2023/06/18 09:26:47;;;;;;;1999.90;999.90;;;29.90;93.00;;;;;;5140439;27;20041;-86
2023/06/18 09:29:14;;;;;;;1999.90;999.90;;;30.00;93.80;;;;;;5143321;27;20035;-86
2023/06/18 09:31:44;;;;;;;1999.90;999.90;;;30.20;93.90;;;;;;5168596;27;20064;-86
2023/06/18 09:34:16;;;;;;;1999.90;999.90;;;30.20;93.00;;;;;;5161492;27;20192;-87
2023/06/18 09:36:43;;;;;;;1999.90;999.90;;;30.00;92.80;;;;;;5128580;27;20069;-87
2023/06/18 09:39:21;;;;;;;1999.90;999.90;;;29.90;93.60;;;;;;5140473;27;20035;-86
2023/06/18 09:41:49;;;;;;;1999.90;999.90;;;30.00;92.90;;;;;;5157660;27;20034;-84
2023/06/18 09:44:21;;;;;;;1999.90;999.90;;;30.00;92.10;;;;;;5158456;27;20049;-82
2023/06/18 09:46:56;;;;;;;1999.90;999.90;;;29.90;92.90;;;;;;5143064;27;20051;-93
2023/06/18 09:49:24;;;;;;;1999.90;999.90;;;29.70;92.50;;;;;;5147424;27;20079;-89
2023/06/18 09:51:51;;;;;;;1999.90;999.90;;;29.80;92.30;;;;;;5147222;27;20390;-87
2023/06/18 09:54:17;;;;;;;1999.90;999.90;;;29.90;92.50;;;;;;5145295;27;20125;-84
2023/06/18 09:56:55;;;;;;;1999.90;999.90;;;30.00;92.10;;;;;;5143528;27;20057;-84
2023/06/18 09:59:22;;;;;;;1999.90;999.90;;;29.90;92.30;;;;;;5160949;27;20043;-87
2023/06/18 10:01:49;;;;;;;1999.90;999.90;;;29.30;90.70;;;;;;5131150;27;20054;-88
2023/06/18 10:04:18;;;;;;;1999.90;999.90;;;29.50;91.50;;;;;;5150887;27;20035;-88
2023/06/18 10:06:59;;;;;;;1999.90;999.90;;;29.30;91.30;;;;;;5134418;27;20445;-90
2023/06/18 10:09:32;;;;;;;1999.90;999.90;;;29.10;92.00;;;;;;5143315;27;20043;-88
2023/06/18 10:11:58;;;;;;;;;;;29.50;91.40;;;;;;5159880;27;20050;-88
2023/06/18 10:14:27;;;;;;;1999.90;999.90;;;29.70;91.30;;;;;;5160017;27;19936;-88
2023/06/18 10:16:58;;;;;;;1999.90;999.90;;;29.70;91.00;;;;;;5161150;27;20026;-89
2023/06/18 10:20:04;;;;;;;1999.90;999.90;;;29.90;91.80;;;;;;5143771;27;20038;-88
2023/06/18 10:22:36;;;;;;;1999.90;999.90;;;30.00;92.30;;;;;;5143304;27;20496;-89
2023/06/18 10:25:04;;;;;;;1999.90;999.90;;;30.30;91.60;;;;;;5144462;27;20049;-88
2023/06/18 10:27:30;;;;;;;1999.90;999.90;;;30.40;90.60;;;;;;5143788;27;20038;-88
2023/06/18 10:30:00;;;;;;;1999.90;999.90;;;30.30;90.30;;;;;;5144101;27;20601;-89
2023/06/18 10:32:27;;;;;;;1999.90;999.90;;;29.90;90.60;;;;;;5160891;27;20042;-87
2023/06/18 10:34:57;;;;;;;1999.90;999.90;;;30.00;90.70;;;;;;5143479;27;20038;-86
2023/06/18 10:37:27;;;;;;;1999.90;999.90;;;29.70;90.20;;;;;;5158153;27;20038;-88
2023/06/18 10:39:53;;;;;;;1999.90;999.90;;;29.90;90.50;;;;;;5159944;27;20046;-87
2023/06/18 10:42:20;;;;;;;1999.90;999.90;;;29.90;90.30;;;;;;5157911;27;20276;-84
2023/06/18 10:44:52;;;;;;;1999.90;999.90;;;30.00;90.40;;;;;;5140417;27;20065;-85
2023/06/18 10:47:26;;;;;;;1999.90;999.90;;;30.00;88.80;;;;;;5176750;27;20066;-86
2023/06/18 10:50:12;;;;;;;1999.90;999.90;;;30.10;89.80;;;;;;5141173;27;20076;-86
2023/06/18 10:52:43;;;;;;;1999.90;999.90;;;30.10;89.70;;;;;;5139721;27;20046;-86
2023/06/18 10:55:16;;;;;;;1999.90;999.90;;;30.20;90.10;;;;;;5139653;27;20038;-87
2023/06/18 10:57:45;;;;;;;1999.90;999.90;;;30.10;88.90;;;;;;5138556;27;20042;-86
2023/06/18 11:00:29;;;;;;;1999.90;999.90;;;30.00;88.80;;;;;;5163303;27;20085;-87
2023/06/18 11:03:11;;;;;;;1999.90;999.90;;;29.90;90.20;;;;;;5141897;27;20507;-88
2023/06/18 11:05:48;;;;;;;1999.90;999.90;;;30.00;90.20;;;;;;5147210;27;20042;-87
2023/06/18 11:08:15;;;;;;;1999.90;999.90;;;30.20;90.10;;;;;;5154838;27;20037;-88
2023/06/18 11:10:48;;;;;;;1999.90;999.90;;;30.30;89.40;;;;;;5136239;27;20133;-87
2023/06/18 11:13:16;;;;;;;1999.90;999.90;;;30.30;89.30;;;;;;5140107;27;20034;-90
2023/06/18 11:16:11;;;;;;;1999.90;999.90;;;30.20;90.00;;;;;;5157400;27;20037;-84
2023/06/18 11:18:40;;;;;;;1999.90;999.90;;;30.40;90.50;;;;;;5152720;27;20047;-84
2023/06/18 11:21:06;;;;;;;1999.90;999.90;;;30.60;89.20;;;;;;5137014;27;20499;-83
2023/06/18 11:23:32;;;;;;;1999.90;999.90;;;30.50;89.10;;;;;;5138912;27;20082;-85
2023/06/18 11:25:59;;;;;;;1999.90;999.90;;;30.40;87.20;;;;;;5139544;27;20086;-88
2023/06/18 11:28:25;;;;;;;1999.90;999.90;;;30.00;87.10;;;;;;5159015;27;20078;-86
2023/06/18 11:31:09;;;;;;;1999.90;999.90;;;30.10;87.10;;;;;;5160319;27;20034;-91
2023/06/18 11:33:35;;;;;;;1999.90;999.90;;;30.20;87.80;;;;;;5158925;27;20073;-93
2023/06/18 11:36:10;;;;;;;1999.90;999.90;;;30.10;87.10;;;;;;5146501;27;20045;-94
2023/06/18 11:38:38;;;;;;;1999.90;999.90;;;30.30;87.40;;;;;;5164445;27;20042;-93
2023/06/18 11:41:04;;;;;;;1999.90;999.90;;;30.20;87.40;;;;;;5135185;27;20060;-84
2023/06/18 11:43:46;;;;;;;1999.90;999.90;;;30.20;87.20;;;;;;5162217;27;20039;-85
2023/06/18 11:46:29;;;;;;;1999.90;999.90;;;30.30;86.50;;;;;;5154157;27;20115;-84
2023/06/18 11:48:55;;;;;;;1999.90;999.90;;;30.30;86.30;;;;;;5138412;27;20042;-84
2023/06/18 11:51:25;;;;;;;1999.90;999.90;;;30.50;88.10;;;;;;5150438;27;20083;-85
2023/06/18 11:53:54;;;;;;;1999.90;999.90;;;30.60;87.60;;;;;;5148771;27;20116;-84
2023/06/18 11:56:27;;;;;;;1999.90;999.90;;;30.70;87.20;;;;;;5134959;27;20073;-84
2023/06/18 11:58:55;;;;;;;1999.90;999.90;;;30.60;84.70;;;;;;5172411;27;20109;-86
2023/06/18 12:01:26;;;;;;;1999.90;999.90;;;30.60;86.50;;;;;;5136488;27;20167;-86
2023/06/18 12:04:01;;;;;;;1999.90;999.90;;;30.70;87.70;;;;;;5157364;27;20066;-89
2023/06/18 12:06:26;;;;;;;1999.90;999.90;;;30.80;85.60;;;;;;5139314;27;20034;-85
2023/06/18 12:08:52;;;;;;;1999.90;999.90;;;30.80;86.30;;;;;;5137781;27;20085;-88
2023/06/18 12:11:46;;;;;;;1999.90;999.90;;;30.80;85.90;;;;;;5153626;27;20035;-86
2023/06/18 12:14:25;;;;;;;1999.90;999.90;;;30.90;85.80;;;;;;5142103;27;20046;-85
2023/06/18 12:16:57;;;;;;;1999.90;999.90;;;30.90;84.20;;;;;;5166208;27;20084;-87